Tiempo atmosférico en la estación meteorológica de Bunyola, Sierra de Alfabia, Illes Balears (1030 m.)



Fecha
DESCASC
Temp. máxima en grados centígrados (hora)
DESCASC
Temp. mínima en grados centígrados (hora)
DESCASC
Temp. media en grados centígrados
DESCASC
Racha de viento máxima en m/sg (hora)
DESCASC
Velocidad máxima media en intervalos de 10 minutos(hora)
DESCASC
Precipitaciones diarias en mm
DESCASC
Precipitaciones de 00:00 a 06:00 en mm
DESCASC
Precipitaciones de 06:00 a 12:00 en mm
DESCASC
Precipitaciones de 12:00 a 18:00 en mm
DESCASC
Precipitaciones de 18:00 a 24:00 en mm
DESCASC

Gráficas

Temp. máximas Temp. mínimas Temp. medias Precipitaciones Rachas de viento máximas Velocidades máximas media en intervalos de 10 minutos

Datos horarios

Fecha y hora oficial Temperatura (ºC) Velocidad del viento (km/h) Dirección del viento Racha (km/h) Dirección de racha Precipitación (mm) Presión (hPa) Tendencia (hPa) Humedad (%)
2019-10-21 23:00:00 10.9 5 Norte 33 Este 8.8 -- -- 99
2019-10-21 22:00:00 10.9 11 Norte 23 Sur 2.1 -- -- 93
2019-10-21 21:00:00 10.9 8 Nordeste 18 Norte 3 -- -- 95
2019-10-21 20:00:00 10.4 9 Nordeste 15 Este 0 -- -- 99
2019-10-21 19:00:00 9.9 8 Nordeste 16 Nordeste 0.5 -- -- 94
2019-10-21 18:00:00 9.5 12 Nordeste 17 Norte 0.9 -- -- 91
2019-10-21 17:00:00 10.6 8 Norte 12 Nordeste 0 -- -- 87
2019-10-21 16:00:00 10.9 5 Nordeste 22 Oeste 0 -- -- 90
2019-10-21 15:00:00 11.1 16 Oeste 32 Oeste 0.2 -- -- 79
2019-10-21 14:00:00 10.7 17 Sudoeste 41 Sudoeste 0.2 -- -- 83
2019-10-21 13:00:00 10.1 24 Sudoeste 37 Sudoeste 0.9 -- -- 87
2019-10-21 12:00:00 10 22 Sudoeste 40 Oeste 0.3 -- -- 99
2019-10-21 11:00:00 10.2 18 Sudoeste 32 Sudoeste 0.5 -- -- 99
2019-10-21 10:00:00 10 15 Sur 30 Sudoeste 0.6 -- -- 92
2019-10-21 09:00:00 9.9 15 Sur 31 Sudoeste 0 -- -- 94
2019-10-21 08:00:00 10.5 23 Sudoeste 36 Sudoeste 0.4 -- -- 90
2019-10-21 07:00:00 10 21 Oeste 32 Oeste 0.6 -- -- 99
2019-10-21 06:00:00 10.2 12 Sudoeste 22 Sudeste 0.7 -- -- 99
2019-10-21 05:00:00 11.5 17 Sur 27 Sur 1.6 -- -- 99
2019-10-21 04:00:00 11.6 14 Sur 29 Sur 0 -- -- 99
2019-10-21 03:00:00 11.1 19 Sur 38 Sur 0.1 -- -- 99
2019-10-21 02:00:00 11.2 20 Sur 45 Sur 0.4 -- -- 99
2019-10-21 01:00:00 12.6 19 Sur 56 Sur 10.1 -- -- 99
2019-10-21 00:00:00 12.5 25 Sudeste 55 Sudeste 0.1 -- -- 99
2019-10-20 23:00:00 12.4 31 Sur 47 Sur 0 -- -- 98
2019-10-20 22:00:00 12.1 22 Sur 37 Sur 0.3 -- -- 96
2019-10-20 21:00:00 12.3 19 Sur 44 Oeste 0.3 -- -- 94
2019-10-20 20:00:00 12.3 25 Oeste 51 Oeste 0.3 -- -- 99
2019-10-20 19:00:00 13 6 Sudoeste 17 Sur 0.1 -- -- 99
2019-10-20 18:00:00 13.5 9 Sudoeste 29 Sudoeste 0 -- -- 99
2019-10-20 17:00:00 14.9 15 Sur 33 Sur 0 -- -- 99
2019-10-20 16:00:00 15 15 Sur 38 Sur 0 -- -- 99
2019-10-20 15:00:00 15.3 21 Sur 44 Sur 0 -- -- 99
2019-10-20 14:00:00 16.5 21 Sur 49 Sur 0 -- -- 99
2019-10-20 13:00:00 16.1 24 Sur 59 Sur 0 -- -- 99
2019-10-20 12:00:00 16.1 28 Sur 58 Sur 0 -- -- 99
2019-10-20 11:00:00 16.4 27 Sur 59 Sur 0.1 -- -- 99
2019-10-20 10:00:00 16.2 30 Sur 68 Sur 0 -- -- 99
2019-10-20 09:00:00 16.1 32 Sur 62 Sur 0.1 -- -- 99
2019-10-20 08:00:00 15.9 34 Sur 64 Sur 0 -- -- 99
2019-10-20 07:00:00 15.3 29 Sur 63 Sur 0 -- -- 99
2019-10-20 06:00:00 15.2 36 Sur 64 Sur 0.1 -- -- 99
2019-10-20 05:00:00 14.8 37 Sur 60 Sur 0 -- -- 99
2019-10-20 04:00:00 14.9 36 Sur 60 Sur 0 -- -- 99
2019-10-20 03:00:00 15.1 37 Sur 60 Sur 0.1 -- -- 99
2019-10-20 02:00:00 14.8 38 Sur 62 Sur 0 -- -- 99
2019-10-20 01:00:00 15 36 Sur 55 Sur 0.1 -- -- 99
2019-10-20 00:00:00 15.3 30 Sur 52 Sudeste 0 -- -- 99
2019-10-19 23:00:00 15.5 28 Sur 49 Sur 0 -- -- 99
2019-10-19 22:00:00 15.8 28 Sur 48 Sur 0 -- -- 99
2019-10-19 21:00:00 15.5 24 Sur 45 Sur 0 -- -- 99
2019-10-19 20:00:00 15.4 23 Sur 40 Sur 0 -- -- 99
2019-10-19 19:00:00 15.5 21 Sur 44 Sur 0 -- -- 99
2019-10-19 18:00:00 14.6 28 Sur 42 Sur 0 -- -- 99
2019-10-19 17:00:00 14.7 31 Sur 47 Sur 0 -- -- 99
2019-10-19 16:00:00 15.3 33 Sur 50 Sur 0 -- -- 93
2019-10-19 15:00:00 15.5 33 Sur 50 Sur 0 -- -- 95
2019-10-19 14:00:00 15.5 33 Sur 51 Sur 0 -- -- 99
2019-10-19 13:00:00 15.3 31 Sur 47 Sur 0 -- -- 99
2019-10-19 12:00:00 14.8 25 Sur 45 Sur 0 -- -- 99
2019-10-19 11:00:00 14.6 29 Sur 44 Sur 0 -- -- 99
2019-10-19 10:00:00 14 27 Sur 38 Sur 0 -- -- 99
2019-10-19 09:00:00 14.1 26 Sur 37 Sur 0 -- -- 99
2019-10-19 08:00:00 14 27 Sur 39 Sur 0 -- -- 99
2019-10-19 07:00:00 14 24 Sur 34 Sur 0 -- -- 99
2019-10-19 06:00:00 14 21 Sur 30 Sur 0 -- -- 99
2019-10-19 05:00:00 14.1 17 Sur 29 Sudoeste 0 -- -- 96
2019-10-19 04:00:00 14.7 18 Sur 31 Sudoeste 0 -- -- 79
2019-10-19 03:00:00 14.1 20 Sur 33 Sur 0 -- -- 95
2019-10-19 02:00:00 14.1 22 Sur 36 Sur 0 -- -- 99
2019-10-19 01:00:00 14.7 25 Sur 38 Sur 0 -- -- 99
2019-10-19 00:00:00 14.4 22 Sur 40 Sur 0 -- -- 99
2019-10-18 23:00:00 14.6 24 Sur 39 Sur 0 -- -- 99
2019-10-18 22:00:00 15.3 21 Sur 31 Sur 0 -- -- 81
2019-10-18 21:00:00 15 18 Sur 24 Sudoeste 0 -- -- 99
2019-10-18 20:00:00 14.7 17 Sur 25 Sudoeste 0 -- -- 98
2019-10-18 19:00:00 15.2 17 Sur 32 Sudoeste 0 -- -- 99
2019-10-18 18:00:00 15.6 17 Sur 26 Sur 0 -- -- 99
2019-10-18 17:00:00 16.3 18 Sur 26 Sur 0 -- -- 93
2019-10-18 16:00:00 17.9 14 Sur 23 Sudoeste 0 -- -- 80
2019-10-18 15:00:00 16.5 18 Sur 25 Sur 0 -- -- 94
2019-10-18 14:00:00 17.5 10 Sur 23 Sur 0 -- -- 92
2019-10-18 13:00:00 16.9 6 Sudoeste 19 Sudoeste 0 -- -- 94
2019-10-18 12:00:00 17.3 10 Sudoeste 19 Sudoeste 0 -- -- 74
2019-10-18 11:00:00 16.4 12 Sur 19 Sudoeste 0 -- -- 83
2019-10-18 10:00:00 17.3 14 Sur 24 Sudoeste 0 -- -- 53
2019-10-18 09:00:00 17.4 14 Sur 23 Sudoeste 0 -- -- 41
2019-10-18 08:00:00 15.6 15 Sur 24 Sur 0 -- -- 41
2019-10-18 07:00:00 15.3 11 Sur 16 Sur 0 -- -- 40
2019-10-18 06:00:00 15.3 9 Sur 16 Sudoeste 0 -- -- 43
2019-10-18 05:00:00 15.3 8 Sur 14 Sudoeste 0 -- -- 41
2019-10-18 04:00:00 14.8 7 Sudoeste 19 Sudoeste 0 -- -- 48
2019-10-18 03:00:00 14.1 10 Sudoeste 18 Sudoeste 0 -- -- 46
2019-10-18 02:00:00 14.3 7 Sudoeste 21 Oeste 0 -- -- 63
2019-10-18 01:00:00 14.9 13 Oeste 26 Oeste 0 -- -- 46
2019-10-18 00:00:00 14.7 12 Oeste 27 Oeste 0 -- -- 46
2019-10-17 23:00:00 15.1 18 Oeste 31 Oeste 0 -- -- 47
2019-10-17 22:00:00 15.3 25 Oeste 43 Oeste 0 -- -- 38
2019-10-17 21:00:00 14.7 22 Sudoeste 37 Sudoeste 0 -- -- 49
2019-10-17 20:00:00 13.5 19 Sudoeste 28 Sudoeste 0 -- -- 91
2019-10-17 19:00:00 14.3 19 Sur 28 Sur 0 -- -- 99
2019-10-17 18:00:00 15.5 18 Sur 30 Sudeste 0 -- -- 86
2019-10-17 17:00:00 15.3 17 Sur 27 Sur 0 -- -- 96
2019-10-17 16:00:00 15.3 19 Sur 33 Sur 0 -- -- 98
2019-10-17 15:00:00 14.9 19 Sur 36 Sur 0 -- -- 96
2019-10-17 14:00:00 15.2 22 Sur 43 Sur 0 -- -- 94
2019-10-17 13:00:00 14.7 25 Sur 39 Sur 0 -- -- 99
2019-10-17 12:00:00 14 20 Sur 41 Sur 0 -- -- 99
2019-10-17 11:00:00 12.9 27 Sur 39 Sur 0 -- -- 99
2019-10-17 10:00:00 12.5 23 Sur 36 Sur 0 -- -- 99
2019-10-17 09:00:00 12.7 23 Sur 33 Sur 0 -- -- 99
2019-10-17 08:00:00 12.7 21 Sur 31 Sur 0 -- -- 99
2019-10-17 07:00:00 12.7 22 Sur 30 Sur 0 -- -- 99
2019-10-17 06:00:00 12.5 22 Sur 34 Sur 0 -- -- 99
2019-10-17 05:00:00 12.3 24 Sur 33 Sur 0 -- -- 99
2019-10-17 04:00:00 12.4 21 Sur 28 Sur 0 -- -- 99
2019-10-17 03:00:00 12.4 18 Sur 32 Sur 0 -- -- 99
2019-10-17 02:00:00 12.4 22 Sur 31 Sur 0 -- -- 99
2019-10-17 01:00:00 12.2 15 Sur 26 Sur 0 -- -- 99
2019-10-17 00:00:00 12.3 17 Sur 28 Sudoeste 0 -- -- 99
2019-10-16 23:00:00 12.4 17 Sur 33 Sur 0 -- -- 90
2019-10-16 22:00:00 12.4 22 Sur 32 Sur 0 -- -- 83
2019-10-16 21:00:00 12.4 18 Sur 27 Sur 0 -- -- 79
2019-10-16 20:00:00 12.6 17 Sudoeste 24 Sudoeste 0 -- -- 65
2019-10-16 19:00:00 12.9 13 Sur 23 Sudoeste 0 -- -- 64
2019-10-16 18:00:00 15.1 10 Sudoeste 25 Sudoeste 0 -- -- 61
2019-10-16 17:00:00 15.1 15 Sur 31 Sur 0 -- -- 72
2019-10-16 16:00:00 15.3 19 Sur 37 Sudoeste 0 -- -- 74
2019-10-16 15:00:00 15.7 19 Sur 37 Sudoeste 0 -- -- 71
2019-10-16 14:00:00 15.5 18 Sur 36 Sur 0 -- -- 69
2019-10-16 13:00:00 15.6 16 Sur 35 Sur 0 -- -- 65
2019-10-16 12:00:00 14.8 17 Sur 35 Sur 0 -- -- 66
2019-10-16 11:00:00 13.4 23 Sur 32 Sur 0 -- -- 66
2019-10-16 10:00:00 12.7 17 Sur 24 Sur 0 -- -- 70
2019-10-16 09:00:00 11.6 17 Sur 24 Sur 0 -- -- 74
2019-10-16 08:00:00 10 16 Sur 22 Sur 0 -- -- 81
2019-10-16 07:00:00 10.3 13 Sur 19 Sur 0 -- -- 81
2019-10-16 06:00:00 10 14 Sur 19 Sur 0 -- -- 82
2019-10-16 05:00:00 10.1 6 Sur 13 Noroeste 0 -- -- 83
2019-10-16 04:00:00 9.8 7 Oeste 21 Noroeste 0 -- -- 85
2019-10-16 03:00:00 9.9 17 Noroeste 33 Noroeste 0 -- -- 82
2019-10-16 02:00:00 10.1 17 Noroeste 36 Noroeste 0 -- -- 83
2019-10-16 01:00:00 10.5 30 Noroeste 40 Noroeste 0 -- -- 79
2019-10-16 00:00:00 10 30 Noroeste 43 Noroeste 0 -- -- 83
2019-10-15 23:00:00 9.9 24 Noroeste 36 Noroeste 0 -- -- 84
2019-10-15 22:00:00 10 24 Noroeste 38 Noroeste 0 -- -- 82
2019-10-15 21:00:00 10.1 28 Noroeste 48 Noroeste 0 -- -- 79
2019-10-15 20:00:00 9.9 31 Noroeste 42 Noroeste 0 -- -- 82
2019-10-15 19:00:00 10.6 23 Noroeste 42 Noroeste 0 -- -- 75
2019-10-15 18:00:00 12.2 24 Noroeste 50 Noroeste 0 -- -- 73
2019-10-15 17:00:00 11.8 31 Noroeste 50 Noroeste 0 -- -- 73
2019-10-15 16:00:00 12.7 21 Noroeste 39 Noroeste 0 -- -- 72
2019-10-15 15:00:00 12.9 27 Noroeste 47 Noroeste 0 -- -- 73
2019-10-15 14:00:00 12.1 28 Noroeste 49 Noroeste 0 -- -- 79
2019-10-15 13:00:00 12.7 27 Noroeste 57 Noroeste 0 -- -- 76
2019-10-15 12:00:00 12 40 Noroeste 60 Noroeste 0 -- -- 82
2019-10-15 11:00:00 11.5 46 Noroeste 74 Noroeste 0 -- -- 80
2019-10-15 10:00:00 11 50 Noroeste 73 Noroeste 0 -- -- 91
2019-10-15 09:00:00 10.6 47 Noroeste 80 Noroeste 0 -- -- 95
2019-10-15 08:00:00 10.3 38 Noroeste 72 Noroeste 0.4 -- -- 99
2019-10-15 07:00:00 11.7 39 Noroeste 60 Noroeste 2.8 -- -- 99
2019-10-15 06:00:00 13 35 Noroeste 63 Oeste 0.1 -- -- 99
2019-10-15 05:00:00 14.2 35 Noroeste 62 Noroeste 0 -- -- 99
2019-10-15 04:00:00 14.7 19 Oeste 51 Oeste 0.2 -- -- 99
2019-10-15 03:00:00 14.6 16 Sudoeste 34 Sur 0.6 -- -- 99
2019-10-15 02:00:00 16.1 17 Sur 30 Sur 0 -- -- 99
2019-10-15 01:00:00 16 21 Sur 35 Sur 0 -- -- 99
2019-10-15 00:00:00 15.4 28 Sur 42 Sur 0 -- -- 99
2019-10-14 23:00:00 15.7 31 Sur 44 Sudeste 0 -- -- 99
2019-10-14 22:00:00 15.8 27 Sur 41 Sur 0 -- -- 99
2019-10-14 21:00:00 16.3 27 Sur 53 Sur 0 -- -- 97
2019-10-14 20:00:00 16.8 30 Sur 47 Sur 0.9 -- -- 92
2019-10-14 19:00:00 16.5 9 Norte 35 Noroeste 0 -- -- 99
2019-10-14 18:00:00 17.5 21 Noroeste 36 Noroeste 0.1 -- -- 99
2019-10-14 17:00:00 19.3 4 Sudoeste 35 Sur 0 -- -- 70
2019-10-14 16:00:00 20.2 16 Sur 46 Sur 0 -- -- 71
2019-10-14 15:00:00 21.9 26 Sur 53 Sur 0 -- -- 72
2019-10-14 14:00:00 23.8 23 Sur 41 Sur 0 -- -- 50
2019-10-14 13:00:00 23.3 30 Sur 48 Sur 0 -- -- 39
2019-10-14 12:00:00 22.6 28 Sur 43 Sur 0 -- -- 45
2019-10-14 11:00:00 20.6 31 Sur 42 Sur 0 -- -- 51
2019-10-14 10:00:00 20 27 Sur 38 Sudeste 0 -- -- 50
2019-10-14 09:00:00 20.3 23 Sudeste 27 Sur 0 -- -- 47
2019-10-14 08:00:00 19.6 21 Sudeste 23 Sudeste 0 -- -- 40
2019-10-14 07:00:00 19.5 18 Sur 22 Sudeste 0 -- -- 43
2019-10-14 06:00:00 19.8 18 Sur 22 Sur 0 -- -- 47
2019-10-14 05:00:00 19.8 16 Sur 18 Sur 0 -- -- 47
2019-10-14 04:00:00 19.9 9 Sur 12 Sudoeste 0 -- -- 46
2019-10-14 03:00:00 20.1 9 Sur 16 Sur 0 -- -- 46
2019-10-14 02:00:00 20.1 12 Sur 17 Sudeste 0 -- -- 47
2019-10-14 01:00:00 19.9 15 Sur 19 Sur 0 -- -- 48
2019-10-14 00:00:00 20 14 Sur 21 Sur 0 -- -- 47
2019-10-13 23:00:00 19 19 Sur 21 Sur 0 -- -- 55
2019-10-13 22:00:00 18.6 17 Sudeste 22 Sudeste 0 -- -- 59
2019-10-13 21:00:00 18.2 21 Sudeste 62 Sudeste 0 -- -- 69
2019-10-13 20:00:00 18.3 21 Sudeste 26 Sudeste 0 -- -- 81
2019-10-13 19:00:00 18.5 18 Sudeste 28 Sudeste 0 -- -- 97
2019-10-13 18:00:00 19.9 22 Sudeste 28 Sudeste 0 -- -- 89
2019-10-13 17:00:00 21.5 14 Sur 27 Sur 0 -- -- 81
2019-10-13 16:00:00 22.1 12 Sudeste 29 Sudeste 0 -- -- 75
2019-10-13 15:00:00 22.4 18 Sur 31 Sudeste 0 -- -- 75
2019-10-13 14:00:00 23.1 13 Sur 23 Sur 0 -- -- 68
2019-10-13 13:00:00 22.6 14 Sudeste 20 Sudeste 0 -- -- 67
2019-10-13 12:00:00 22.3 19 Sudeste 29 Sur 0 -- -- 59
2019-10-13 11:00:00 21.6 21 Sur 28 Sudeste 0 -- -- 48
2019-10-13 10:00:00 20.3 23 Sur 30 Sudeste 0 -- -- 47
2019-10-13 09:00:00 19.3 21 Sur 34 Sur 0 -- -- 44
2019-10-13 08:00:00 17.7 26 Sudeste 36 Sur 0 -- -- 52
2019-10-13 07:00:00 17.7 25 Sur 35 Sur 0 -- -- 55
2019-10-13 06:00:00 17.7 22 Sudeste 32 Sudeste 0 -- -- 59
2019-10-13 05:00:00 18 23 Sudeste 33 Sur 0 -- -- 55
2019-10-13 04:00:00 18.4 24 Sudeste 37 Sur 0 -- -- 51
2019-10-13 03:00:00 17.7 28 Sudeste 34 Sur 0 -- -- 55
2019-10-13 02:00:00 18.2 30 Sudeste 35 Sur 0 -- -- 48
2019-10-13 01:00:00 16.9 30 Sudeste 35 Sudeste 0 -- -- 62
2019-10-13 00:00:00 16.1 30 Sudeste 40 Sudeste 0 -- -- 74
2019-10-12 23:00:00 16.4 28 Sudeste 37 Sudeste 0 -- -- 71
2019-10-12 22:00:00 16.4 25 Sudeste 37 Sur 0 -- -- 77
2019-10-12 21:00:00 16.3 24 Sudeste 37 Sur 0 -- -- 84
2019-10-12 20:00:00 16 31 Sudeste 37 Sur 0 -- -- 99
2019-10-12 19:00:00 17.2 29 Sur 38 Sur 0 -- -- 99
2019-10-12 18:00:00 18.3 23 Sur 32 Sur 0 -- -- 94
2019-10-12 17:00:00 20.3 16 Sur 35 Sur 0 -- -- 82
2019-10-12 16:00:00 20.8 22 Sur 39 Sur 0 -- -- 78
2019-10-12 15:00:00 20.3 24 Sur 39 Sur 0 -- -- 74
2019-10-12 14:00:00 20.7 21 Sur 35 Sur 0 -- -- 77
2019-10-12 13:00:00 19.7 25 Sudeste 32 Sur 0 -- -- 79
2019-10-12 12:00:00 18 22 Sur 34 Sur 0 -- -- 82
2019-10-12 11:00:00 19.4 26 Sur 34 Sur 0 -- -- 61
2019-10-12 10:00:00 17.2 25 Sudeste 34 Sudeste 0 -- -- 69
2019-10-12 09:00:00 14.6 27 Sudeste 36 Sudeste 0 -- -- 87
2019-10-12 08:00:00 14.5 26 Sudeste 32 Sudeste 0 -- -- 78
2019-10-12 07:00:00 14 26 Sudeste 32 Sudeste 0 -- -- 88
2019-10-12 06:00:00 14.1 24 Sudeste 33 Sudeste 0 -- -- 93
2019-10-12 05:00:00 14.1 25 Sudeste 37 Sudeste 0 -- -- 99
2019-10-12 04:00:00 14.4 27 Sudeste 35 Sudeste 0 -- -- 94
2019-10-12 03:00:00 14.4 27 Sudeste 33 Sudeste 0 -- -- 95
2019-10-12 02:00:00 14.4 25 Sudeste 33 Sudeste 0 -- -- 93
2019-10-12 01:00:00 14.4 29 Sudeste 35 Sudeste 0 -- -- 94
2019-10-12 00:00:00 14.4 27 Sudeste 37 Sudeste 0 -- -- 93
2019-10-11 23:00:00 14.5 28 Sudeste 31 Sudeste 0 -- -- 98
2019-10-11 22:00:00 14.6 27 Sudeste 33 Sudeste 0 -- -- 99
2019-10-11 21:00:00 15.4 27 Sudeste 33 Sudeste 0 -- -- 99
2019-10-11 20:00:00 15.6 28 Sudeste 33 Sur 0 -- -- 99
2019-10-11 19:00:00 15.9 25 Sur 32 Sur 0 -- -- 99
2019-10-11 18:00:00 16.5 22 Sur 32 Sur 0 -- -- 99
2019-10-11 17:00:00 16.7 21 Sur 30 Sur 0 -- -- 99
2019-10-11 16:00:00 17.5 19 Sur 30 Sur 0 -- -- 97
2019-10-11 15:00:00 18.1 19 Sur 28 Sur 0 -- -- 91
2019-10-11 14:00:00 17.5 16 Sur 29 Sur 0 -- -- 92
2019-10-11 13:00:00 17.1 16 Sur 26 Sur 0 -- -- 93
2019-10-11 12:00:00 16.4 16 Sur 24 Sur 0 -- -- 98
2019-10-11 11:00:00 17.5 17 Sur 26 Sur 0 -- -- 89
2019-10-11 10:00:00 16.7 16 Sur 21 Sur 0 -- -- 88
2019-10-11 09:00:00 15.4 17 Sur 19 Sur 0.1 -- -- 95
2019-10-11 08:00:00 13.7 15 Sur 17 Sur 0 -- -- 99
2019-10-11 07:00:00 14.3 2 Sudeste 7 Norte 0 -- -- 99
2019-10-11 06:00:00 14.4 6 Norte 9 Noroeste 0 -- -- 99
2019-10-11 05:00:00 14.4 4 Noroeste 10 Noroeste 0 -- -- 99
2019-10-11 04:00:00 14.8 8 Noroeste 16 Norte 0 -- -- 99
2019-10-11 03:00:00 14.7 14 Noroeste 15 Noroeste 0 -- -- 96
2019-10-11 02:00:00 14.2 7 Noroeste 10 Noroeste 0 -- -- 93
2019-10-11 01:00:00 14.2 6 Noroeste 12 Noroeste 0 -- -- 99
2019-10-11 00:00:00 13.6 4 Sudoeste 10 Sur 0 -- -- 99
2019-10-10 23:00:00 12.9 9 Sudeste 13 Sudeste 0 -- -- 99
2019-10-10 22:00:00 13.8 8 Sudeste 17 Sur 0 -- -- 99
2019-10-10 21:00:00 13.7 12 Sur 18 Sudeste 0 -- -- 99
2019-10-10 20:00:00 13.8 16 Sudeste 23 Sur 0 -- -- 99
2019-10-10 19:00:00 14.3 18 Sudeste 22 Sur 0 -- -- 98
2019-10-10 18:00:00 14.8 15 Sudeste 20 Sudeste 0 -- -- 98
2019-10-10 17:00:00 15.6 15 Sudeste 23 Sudeste 0 -- -- 95
2019-10-10 16:00:00 15.4 12 Sudeste 20 Sudeste 0 -- -- 98
2019-10-10 15:00:00 15.6 10 Sudeste 22 Sur 0 -- -- 98
2019-10-10 14:00:00 16.2 12 Sur 19 Sur 0 -- -- 95
2019-10-10 13:00:00 15.4 6 Sur 15 Sudeste 0 -- -- 99
2019-10-10 12:00:00 14.8 11 Sudeste 25 Sur 0 -- -- 99
2019-10-10 11:00:00 14.7 13 Sudeste 28 Sudeste 0 -- -- 99
2019-10-10 10:00:00 14.6 12 Este 17 Sudeste 0.2 -- -- 99
2019-10-10 09:00:00 14.5 8 Este 26 Sudeste 0 -- -- 99
2019-10-10 08:00:00 14.2 19 Sudeste 24 Sudeste 0 -- -- 99
2019-10-10 07:00:00 13.9 18 Sudeste 24 Sudeste 0 -- -- 99
2019-10-10 06:00:00 13.9 17 Este 24 Sudeste 0 -- -- 99
2019-10-10 05:00:00 12.9 19 Sudeste 24 Sudeste 0 -- -- 99
2019-10-10 04:00:00 13.2 18 Este 24 Sudeste 0 -- -- 99
2019-10-10 03:00:00 13.5 17 Este 28 Sudeste 0 -- -- 92
2019-10-10 02:00:00 13.5 20 Este 30 Sudeste 0 -- -- 99
2019-10-10 01:00:00 13.5 16 Este 27 Este 0 -- -- 99
2019-10-10 00:00:00 14.3 18 Sudeste 29 Este 0 -- -- 99
2019-10-09 23:00:00 14.1 20 Este 28 Sudeste 0 -- -- 99
2019-10-09 22:00:00 14.6 15 Este 23 Este 0 -- -- 99
2019-10-09 21:00:00 15 20 Sudeste 23 Sur 0 -- -- 99
2019-10-09 20:00:00 15.6 8 Sur 14 Sudeste 0 -- -- 99
2019-10-09 19:00:00 16.2 0 Calma 13 Sudoeste 0 -- -- 95
2019-10-09 18:00:00 17.7 9 Sur 17 Sudeste 0 -- -- 83
2019-10-09 17:00:00 17.9 0 Calma 20 Sur 0 -- -- 83
2019-10-09 16:00:00 18.5 4 Sur 22 Sur 0 -- -- 75
2019-10-09 15:00:00 19.2 15 Sur 31 Sur 0 -- -- 72
2019-10-09 14:00:00 19.1 10 Sur 20 Sur 0 -- -- 72
2019-10-09 13:00:00 19.1 13 Sur 20 Sur 0 -- -- 70
2019-10-09 12:00:00 18.6 6 Sur 27 Sudeste 0 -- -- 66
2019-10-09 11:00:00 17.5 23 Sur 31 Sur 0 -- -- 66
2019-10-09 10:00:00 16.1 24 Sur 31 Sudeste 0 -- -- 78
2019-10-09 09:00:00 15.5 17 Sur 27 Sur 0 -- -- 63
2019-10-09 08:00:00 13.7 22 Sur 30 Sur 0 -- -- 68
2019-10-09 07:00:00 13.5 21 Sur 30 Sur 0 -- -- 51
2019-10-09 06:00:00 12.7 20 Sur 27 Sur 0 -- -- 98
2019-10-09 05:00:00 12.6 22 Sur 29 Sur 0 -- -- 99
2019-10-09 04:00:00 12.6 23 Sur 28 Sur 0 -- -- 99
2019-10-09 03:00:00 12.7 23 Sur 28 Sur 0 -- -- 99
2019-10-09 02:00:00 12.7 18 Sur 27 Sur 0 -- -- 98
2019-10-09 01:00:00 12.8 20 Sur 24 Sur 0 -- -- 93
2019-10-09 00:00:00 12.9 17 Sur 22 Sur 0 -- -- 92
2019-10-08 23:00:00 13 18 Sur 25 Sur 0 -- -- 88
2019-10-08 22:00:00 15.4 16 Sur 29 Sur 0 -- -- 54
2019-10-08 21:00:00 15 23 Sur 28 Sur 0 -- -- 64
2019-10-08 20:00:00 14 20 Sur 27 Sur 0 -- -- 94
2019-10-08 19:00:00 15.1 8 Sur 15 Sur 0 -- -- 87
2019-10-08 18:00:00 16.4 8 Sur 18 Sudoeste 0 -- -- 80
2019-10-08 17:00:00 16.9 11 Sur 20 Sudoeste 0 -- -- 77
2019-10-08 16:00:00 17.2 9 Sur 17 Sudoeste 0 -- -- 75
2019-10-08 15:00:00 18.8 5 Sudoeste 15 Sudoeste 0 -- -- 67
2019-10-08 14:00:00 18.4 3 Norte 15 Noroeste 0 -- -- 60
2019-10-08 13:00:00 18.2 5 Noroeste 13 Noroeste 0 -- -- 56
2019-10-08 12:00:00 16.9 4 Oeste 11 Noroeste 0 -- -- 61
2019-10-08 11:00:00 16.4 3 Oeste 10 Sur 0 -- -- 59
2019-10-08 10:00:00 15.7 4 Sudoeste 11 Sudoeste 0 -- -- 57
2019-10-08 09:00:00 14.9 6 Oeste 13 Oeste 0 -- -- 40
2019-10-08 08:00:00 12.9 9 Noroeste 17 Noroeste 0 -- -- 39
2019-10-08 07:00:00 13.1 9 Noroeste 15 Noroeste 0 -- -- 38
2019-10-08 06:00:00 14 5 Noroeste 16 Norte 0 -- -- 34
2019-10-08 05:00:00 14.3 12 Norte 25 Norte 0 -- -- 31
2019-10-08 04:00:00 13.2 16 Norte 26 Norte 0 -- -- 38
2019-10-08 03:00:00 12 7 Nordeste 31 Norte 0 -- -- 65
2019-10-08 02:00:00 12.2 14 Norte 22 Norte 0 -- -- 68
2019-10-08 01:00:00 12 16 Noroeste 26 Noroeste 0 -- -- 73
2019-10-08 00:00:00 12.6 9 Norte 28 Norte 0 -- -- 72
2019-10-07 23:00:00 12.7 20 Norte 30 Norte 0 -- -- 78
2019-10-07 22:00:00 13.2 17 Norte 26 Norte 0 -- -- 68
2019-10-07 21:00:00 13.6 20 Noroeste 29 Noroeste 0 -- -- 73
2019-10-07 20:00:00 12.9 19 Noroeste 26 Noroeste 0 -- -- 79
2019-10-07 19:00:00 13.6 12 Noroeste 22 Noroeste 0 -- -- 92
2019-10-07 18:00:00 14.8 14 Noroeste 27 Norte 0 -- -- 88
2019-10-07 17:00:00 14.8 20 Noroeste 32 Noroeste 0 -- -- 88
2019-10-07 16:00:00 14.5 25 Noroeste 35 Noroeste 0 -- -- 90
2019-10-07 15:00:00 16.4 19 Noroeste 31 Noroeste 0 -- -- 81
2019-10-07 14:00:00 15.3 22 Noroeste 36 Noroeste 0 -- -- 82
2019-10-07 13:00:00 14.9 20 Noroeste 31 Norte 0 -- -- 87
2019-10-07 12:00:00 14.4 8 Noroeste 17 Nordeste 0 -- -- 88
2019-10-07 11:00:00 12.9 6 Nordeste 23 Este 0 -- -- 93
2019-10-07 10:00:00 12.4 17 Este 30 Este 0 -- -- 98
2019-10-07 09:00:00 12.9 12 Nordeste 35 Noroeste 0 -- -- 88
2019-10-07 08:00:00 12.3 24 Noroeste 56 Noroeste 0 -- -- 95
2019-10-07 07:00:00 12.4 40 Noroeste 71 Noroeste 0 -- -- 87
2019-10-07 06:00:00 13.1 51 Noroeste 85 Noroeste 0 -- -- 78
2019-10-07 05:00:00 14 47 Noroeste 76 Norte 0 -- -- 78
2019-10-07 04:00:00 14.5 45 Noroeste 77 Noroeste 0 -- -- 93
2019-10-07 03:00:00 14.9 36 Noroeste 57 Noroeste 0 -- -- 99
2019-10-07 02:00:00 14.8 33 Noroeste 55 Noroeste 0 -- -- 93
2019-10-07 01:00:00 14.8 25 Noroeste 41 Noroeste 0 -- -- 92
2019-10-07 00:00:00 15.3 24 Noroeste 36 Noroeste 0 -- -- 76
2019-10-06 23:00:00 15.3 20 Noroeste 28 Noroeste 0 -- -- 73
2019-10-06 22:00:00 16.1 20 Noroeste 30 Noroeste 0 -- -- 66
2019-10-06 21:00:00 16.3 19 Noroeste 29 Norte 0 -- -- 63
2019-10-06 20:00:00 16.6 24 Noroeste 33 Noroeste 0 -- -- 59
2019-10-06 19:00:00 17.4 13 Noroeste 19 Noroeste 0 -- -- 63
2019-10-06 18:00:00 16.3 12 Nordeste 19 Nordeste 0 -- -- 95
2019-10-06 17:00:00 19.4 7 Sur 21 Sur 0 -- -- 84
2019-10-06 16:00:00 18.8 13 Sur 20 Sur 0 -- -- 85
2019-10-06 15:00:00 19.8 2 Sudoeste 18 Sudeste 0 -- -- 78
2019-10-06 14:00:00 17.8 8 Norte 18 Sudeste 0 -- -- 95
2019-10-06 13:00:00 19.8 8 Sur 24 Sur 0 -- -- 72
2019-10-06 12:00:00 16.7 8 Noroeste 26 Norte 0 -- -- 93
2019-10-06 11:00:00 17.3 10 Norte 17 Noroeste 0 -- -- 86
2019-10-06 10:00:00 18.6 3 Sudoeste 13 Noroeste 0 -- -- 77
2019-10-06 09:00:00 16.7 8 Noroeste 20 Norte 0 -- -- 76
2019-10-06 08:00:00 14.7 19 Noroeste 22 Norte 0 -- -- 92
2019-10-06 07:00:00 14.5 15 Noroeste 19 Noroeste 0 -- -- 99
2019-10-06 06:00:00 14.5 12 Noroeste 14 Noroeste 0 -- -- 98
2019-10-06 05:00:00 14.9 13 Noroeste 22 Norte 0 -- -- 85
2019-10-06 04:00:00 15 18 Noroeste 26 Noroeste 0 -- -- 99
2019-10-06 03:00:00 14.9 21 Noroeste 26 Norte 0 -- -- 90
2019-10-06 02:00:00 14.8 19 Noroeste 26 Noroeste 0 -- -- 96
2019-10-06 01:00:00 14.8 20 Noroeste 30 Noroeste 0 -- -- 98
2019-10-06 00:00:00 15 19 Noroeste 26 Noroeste 0 -- -- 91
2019-10-05 23:00:00 15.4 22 Noroeste 27 Noroeste 0 -- -- 82
2019-10-05 22:00:00 15.9 11 Noroeste 16 Noroeste 0 -- -- 85
2019-10-05 21:00:00 16.1 6 Oeste 15 Sudoeste 0 -- -- 83
2019-10-05 20:00:00 16.4 9 Sur 19 Sur 0 -- -- 99
2019-10-05 19:00:00 16.6 13 Sur 24 Sur 0 -- -- 99
2019-10-05 18:00:00 17.3 17 Sur 29 Sur 0 -- -- 99
2019-10-05 17:00:00 17.5 18 Sudeste 24 Sur 0 -- -- 95
2019-10-05 16:00:00 17.9 10 Sur 20 Sur 0 -- -- 90
2019-10-05 15:00:00 18.6 10 Sur 23 Sur 0 -- -- 80
2019-10-05 14:00:00 19.8 11 Sur 25 Sur 0 -- -- 69
2019-10-05 13:00:00 18.2 9 Sur 21 Sur 0 -- -- 83
2019-10-05 12:00:00 19.3 7 Sur 19 Sur 0 -- -- 79
2019-10-05 11:00:00 20.1 5 Sudeste 16 Sudeste 0 -- -- 62
2019-10-05 10:00:00 19.4 8 Sudeste 15 Norte 0 -- -- 50
2019-10-05 09:00:00 16.9 14 Norte 17 Norte 0 -- -- 48
2019-10-05 08:00:00 16.4 7 Norte 12 Noroeste 0 -- -- 47
2019-10-05 07:00:00 16.4 8 Noroeste 16 Noroeste 0 -- -- 43
2019-10-05 06:00:00 17.4 5 Oeste 14 Sudoeste 0 -- -- 37
2019-10-05 05:00:00 17.4 2 Noroeste 14 Oeste 0 -- -- 43
2019-10-05 04:00:00 17.7 6 Oeste 11 Noroeste 0 -- -- 43
2019-10-05 03:00:00 17.8 6 Oeste 14 Sudoeste 0 -- -- 43
2019-10-05 02:00:00 17.7 8 Sudoeste 14 Oeste 0 -- -- 45
2019-10-05 01:00:00 18.7 10 Oeste 14 Oeste 0 -- -- 52
2019-10-05 00:00:00 18.2 7 Oeste 16 Noroeste 0 -- -- 48
2019-10-04 23:00:00 17.9 11 Oeste 18 Sudoeste 0 -- -- 50
2019-10-04 22:00:00 16.1 13 Sudoeste 19 Sudoeste 0 -- -- 55
2019-10-04 21:00:00 16.6 8 Oeste 17 Oeste 0 -- -- 59
2019-10-04 20:00:00 16.6 9 Noroeste 22 Oeste 0 -- -- 67
2019-10-04 19:00:00 17.5 9 Oeste 19 Sudoeste 0 -- -- 66
2019-10-04 18:00:00 19.1 9 Oeste 21 Noroeste 0 -- -- 65
2019-10-04 17:00:00 18.4 7 Oeste 18 Noroeste 0 -- -- 77
2019-10-04 16:00:00 18 4 Oeste 17 Noroeste 0 -- -- 75
2019-10-04 15:00:00 19.6 6 Noroeste 16 Noroeste 0 -- -- 68
2019-10-04 14:00:00 18.6 4 Sudoeste 17 Sudoeste 0 -- -- 68
2019-10-04 13:00:00 18.5 9 Sudoeste 19 Sudoeste 0 -- -- 76
2019-10-04 12:00:00 18.1 3 Oeste 7 Oeste 0 -- -- --
2019-10-04 11:00:00 18.5 0 Calma 12 Noroeste 0 -- -- 59
2019-10-04 10:00:00 18.2 5 Oeste 15 Noroeste 0 -- -- 43
2019-10-04 09:00:00 16.4 6 Oeste 15 Oeste 0 -- -- --
2019-10-04 08:00:00 15.5 10 Oeste 18 Oeste 0 -- -- 39
2019-10-04 07:00:00 15 7 Sudoeste 15 Oeste 0 -- -- 37
2019-10-04 06:00:00 14.1 6 Sudoeste 11 Oeste 0 -- -- 43
2019-10-04 05:00:00 14.3 4 Noroeste 16 Sur 0 -- -- 41
2019-10-04 04:00:00 13.4 10 Sur 13 Sur 0 -- -- 85
2019-10-04 03:00:00 14.6 8 Sur 15 Sur 0 -- -- 49
2019-10-04 02:00:00 14.4 12 Sur 14 Sur 0 -- -- 65
2019-10-04 01:00:00 14.1 10 Sudeste 15 Sur 0 -- -- 73
2019-10-04 00:00:00 15 9 Sur 11 Sur 0 -- -- 66
2019-10-03 23:00:00 15.3 3 Sur 11 Sur 0 -- -- 52
2019-10-03 22:00:00 12.9 6 Sudeste 24 Sudeste 0 -- -- 93
2019-10-03 21:00:00 13.8 19 Sudeste 25 Sudeste 0 -- -- 99
2019-10-03 20:00:00 14.4 21 Sudeste 27 Sudeste 0 -- -- 99
2019-10-03 19:00:00 15 6 Este 20 Norte 0 -- -- 86
2019-10-03 18:00:00 15.1 12 Norte 27 Norte 0 -- -- 77
2019-10-03 17:00:00 16 20 Noroeste 33 Noroeste 0 -- -- 70
2019-10-03 16:00:00 17.4 17 Noroeste 30 Noroeste 0 -- -- 69
2019-10-03 15:00:00 18.1 18 Noroeste 44 Noroeste 0 -- -- 75
2019-10-03 14:00:00 18.1 27 Noroeste 50 Noroeste 0 -- -- 68
2019-10-03 13:00:00 17.8 13 Noroeste 28 Noroeste 0 -- -- 84
2019-10-03 12:00:00 16.7 14 Noroeste 30 Noroeste 0 -- -- 87
2019-10-03 11:00:00 17 17 Noroeste 32 Noroeste 0 -- -- 88
2019-10-03 10:00:00 15.3 18 Noroeste 30 Noroeste 0 -- -- 95
2019-10-03 09:00:00 14.7 15 Noroeste 31 Noroeste 0 -- -- 99
2019-10-03 08:00:00 13.4 13 Oeste 30 Oeste 0 -- -- 99
2019-10-03 07:00:00 13.7 13 Oeste 24 Oeste 0 -- -- 99
2019-10-03 06:00:00 12.7 5 Sur 16 Sudoeste 0 -- -- 99
2019-10-03 05:00:00 12.9 5 Sur 14 Oeste 0 -- -- 99
2019-10-03 04:00:00 13.2 3 Oeste 18 Oeste 0 -- -- 99
2019-10-03 03:00:00 14.2 9 Noroeste 19 Oeste 0 -- -- 99
2019-10-03 02:00:00 14.4 8 Oeste 27 Noroeste 0 -- -- 99
2019-10-03 01:00:00 14.2 11 Noroeste 33 Noroeste 0 -- -- 97
2019-10-03 00:00:00 14.3 18 Noroeste 32 Noroeste 0 -- -- 92
2019-10-02 23:00:00 14.2 21 Noroeste 33 Noroeste 0 -- -- 85
2019-10-02 22:00:00 14.3 23 Noroeste 37 Noroeste 0 -- -- 75
2019-10-02 21:00:00 14.1 29 Noroeste 40 Noroeste 0 -- -- 67
2019-10-02 20:00:00 13.8 26 Noroeste 31 Noroeste 0 -- -- 60
2019-10-02 19:00:00 14.4 11 Noroeste 19 Noroeste 0 -- -- 77
2019-10-02 18:00:00 15 13 Noroeste 23 Sudoeste 0 -- -- 85
2019-10-02 17:00:00 15.8 16 Noroeste 26 Oeste 0 -- -- 80
2019-10-02 16:00:00 15.9 13 Noroeste 27 Norte 0 -- -- 88
2019-10-02 15:00:00 15.2 18 Noroeste 32 Noroeste 0 -- -- 96
2019-10-02 14:00:00 14.1 18 Noroeste 31 Noroeste 3.3 -- -- 97
2019-10-02 13:00:00 14.8 20 Sudeste 39 Sudeste 0.1 -- -- 99
2019-10-02 12:00:00 12.5 8 Este 41 Este 19.2 -- -- 99
2019-10-02 11:00:00 13.2 23 Sudeste 41 Sudeste 11.5 -- -- 99
2019-10-02 10:00:00 14.7 28 Sudeste 45 Este 0 -- -- 93
2019-10-02 09:00:00 14.6 19 Este 40 Sudeste 0 -- -- 97
2019-10-02 08:00:00 13.9 26 Este 35 Este 0 -- -- 99
2019-10-02 07:00:00 14.2 21 Este 30 Este 0 -- -- 99
2019-10-02 06:00:00 14.9 12 Este 19 Este 0 -- -- 99
2019-10-02 05:00:00 15.5 3 Nordeste 41 Norte 0 -- -- 99
2019-10-02 04:00:00 16.7 28 Norte 44 Norte 0 -- -- 99
2019-10-02 03:00:00 17 29 Noroeste 48 Noroeste 0 -- -- 99
2019-10-02 02:00:00 16.3 32 Norte 56 Noroeste 0 -- -- 99
2019-10-02 01:00:00 18.8 26 Norte 35 Noroeste 0 -- -- 49
2019-10-02 00:00:00 20.3 26 Noroeste 39 Noroeste 0 -- -- 35
2019-10-01 23:00:00 19.9 24 Noroeste 41 Noroeste 0 -- -- 40
2019-10-01 22:00:00 20.5 19 Noroeste 25 Noroeste 0 -- -- 44
2019-10-01 21:00:00 21.8 14 Noroeste 23 Oeste 0 -- -- 32
2019-10-01 20:00:00 22 7 Oeste 15 Oeste 0 -- -- 34
2019-10-01 19:00:00 22.9 6 Oeste 12 Oeste 0 -- -- 32
2019-10-01 18:00:00 23.4 8 Noroeste 17 Noroeste 0 -- -- 63
2019-10-01 17:00:00 22.2 6 Sudoeste 20 Sudoeste 0 -- -- 64
2019-10-01 16:00:00 21.9 9 Sudoeste 26 Sudoeste 0 -- -- 68
2019-10-01 15:00:00 21.8 14 Sur 22 Sudoeste 0 -- -- 73
2019-10-01 14:00:00 22.4 12 Sur 25 Sudoeste 0 -- -- 75
2019-10-01 13:00:00 22.8 12 Sudoeste 35 Sudoeste 0 -- -- 64
2019-10-01 12:00:00 22.3 20 Sur 36 Sudoeste 0 -- -- 49
2019-10-01 11:00:00 22.4 21 Sudoeste 35 Sudoeste 0 -- -- 37
2019-10-01 10:00:00 22.3 18 Sudoeste 28 Oeste 0 -- -- 38
2019-10-01 09:00:00 20.9 14 Oeste 33 Sudoeste 0 -- -- 40
2019-10-01 08:00:00 20.7 18 Sudoeste 35 Oeste 0 -- -- 39
2019-10-01 07:00:00 19.6 14 Oeste 32 Oeste 0 -- -- 46
2019-10-01 06:00:00 20 17 Oeste 29 Oeste 0 -- -- 44
2019-10-01 05:00:00 20.2 16 Oeste 31 Sudoeste 0 -- -- 44
2019-10-01 04:00:00 20.1 15 Oeste 31 Oeste 0 -- -- 42
2019-10-01 03:00:00 20.4 18 Oeste 40 Sudoeste 0 -- -- 44
2019-10-01 02:00:00 20.9 28 Sudoeste 40 Sudoeste 0 -- -- 38
2019-10-01 01:00:00 21.3 26 Sudoeste 36 Sudoeste 0 -- -- 30
2019-10-01 00:00:00 21.2 23 Sudoeste 35 Sudoeste 0 -- -- 29
2019-09-30 23:00:00 21 24 Sudoeste 32 Sudoeste 0 -- -- 36
2019-09-30 22:00:00 21.2 22 Sudoeste 28 Sudoeste 0 -- -- 35
2019-09-30 21:00:00 20.4 19 Sudoeste 24 Sudoeste 0 -- -- 44
2019-09-30 20:00:00 19.8 12 Sur 18 Sur 0 -- -- 52
2019-09-30 19:00:00 20.1 10 Sur 20 Sur 0 -- -- 62
2019-09-30 18:00:00 20.9 14 Sur 25 Sur 0 -- -- 71
2019-09-30 17:00:00 21.4 17 Sur 27 Sur 0 -- -- 71
2019-09-30 16:00:00 22.1 15 Sur 25 Sur 0 -- -- 66
2019-09-30 15:00:00 22.4 15 Sur 26 Sur 0 -- -- 64
2019-09-30 14:00:00 22.4 16 Sur 24 Sudeste 0 -- -- 71
2019-09-30 13:00:00 22.4 15 Sur 25 Sudeste 0 -- -- 75
2019-09-30 12:00:00 22.9 13 Sur 19 Sudeste 0 -- -- 66
2019-09-30 11:00:00 23.2 15 Sudeste 19 Sur 0 -- -- 44
2019-09-30 10:00:00 24.3 7 Sur 10 Sur 0 -- -- 36
2019-09-30 09:00:00 22.6 5 Sur 8 Sur 0 -- -- 36
2019-09-30 08:00:00 20.6 2 Oeste 10 Noroeste 0 -- -- 35
2019-09-30 07:00:00 20.4 9 Noroeste 14 Oeste 0 -- -- 35
2019-09-30 06:00:00 20.3 9 Noroeste 13 Noroeste 0 -- -- 37
2019-09-30 05:00:00 20 7 Noroeste 16 Noroeste 0 -- -- 38
2019-09-30 04:00:00 20.2 12 Noroeste 16 Noroeste 0 -- -- 38
2019-09-30 03:00:00 21.2 10 Noroeste 21 Oeste 0 -- -- 35
2019-09-30 02:00:00 20.5 12 Oeste 22 Oeste 0 -- -- 34
2019-09-30 01:00:00 20.3 12 Oeste 23 Sudoeste 0 -- -- 33
2019-09-30 00:00:00 20.1 15 Sudoeste 26 Oeste 0 -- -- 36
2019-09-29 23:00:00 20.3 21 Sudoeste 28 Sudoeste 0 -- -- 35
2019-09-29 22:00:00 20.3 18 Sudoeste 26 Sudoeste 0 -- -- 38
2019-09-29 21:00:00 19.9 19 Sudoeste 26 Sudoeste 0 -- -- 40
2019-09-29 20:00:00 19.7 19 Sudoeste 27 Sudoeste 0 -- -- 43
2019-09-29 19:00:00 20.1 18 Sur 27 Sudoeste 0 -- -- 50
2019-09-29 18:00:00 20.2 13 Sur 20 Sur 0 -- -- 72
2019-09-29 17:00:00 20 14 Sur 21 Sur 0 -- -- 87
2019-09-29 16:00:00 22 6 Sudoeste 15 Oeste 0 -- -- 81
2019-09-29 15:00:00 23.2 6 Sudoeste 18 Sudoeste 0 -- -- 70
2019-09-29 14:00:00 23 8 Sudoeste 21 Sudoeste 0 -- -- 74
2019-09-29 13:00:00 23.8 4 Sudoeste 21 Oeste 0 -- -- 50
2019-09-29 12:00:00 22.4 8 Oeste 21 Sudoeste 0 -- -- 50
2019-09-29 11:00:00 22.2 10 Oeste 17 Oeste 0 -- -- 43
2019-09-29 10:00:00 21.4 14 Oeste 21 Oeste 0 -- -- 41
2019-09-29 09:00:00 21 14 Oeste 24 Oeste 0 -- -- 40
2019-09-29 08:00:00 20.1 20 Oeste 30 Oeste 0 -- -- 41
2019-09-29 07:00:00 19.8 19 Oeste 27 Oeste 0 -- -- 42
2019-09-29 06:00:00 19.2 16 Oeste 24 Oeste 0 -- -- 47
2019-09-29 05:00:00 18.7 17 Oeste 24 Oeste 0 -- -- 49
2019-09-29 04:00:00 18.5 15 Oeste 23 Oeste 0 -- -- 52
2019-09-29 03:00:00 18.3 14 Oeste 21 Oeste 0 -- -- 52
2019-09-29 02:00:00 17.5 12 Sudoeste 16 Sudoeste 0 -- -- 67
2019-09-29 01:00:00 17.2 8 Sudoeste 19 Sudoeste 0 -- -- 75
2019-09-29 00:00:00 17.2 8 Sudoeste 21 Oeste 0 -- -- 88
2019-09-28 23:00:00 17.8 8 Sudoeste 20 Sudoeste 0 -- -- 85
2019-09-28 22:00:00 18.2 10 Sudoeste 17 Sudoeste 0 -- -- 65
2019-09-28 21:00:00 17.7 7 Sudoeste 19 Sur 0 -- -- 88
2019-09-28 20:00:00 17.6 13 Sur 20 Sur 0 -- -- 99
2019-09-28 19:00:00 18.3 6 Sur 15 Sur 0 -- -- 99
2019-09-28 18:00:00 19.1 5 Sur 18 Sudoeste 0 -- -- 97
2019-09-28 17:00:00 19.9 9 Sur 18 Sur 0 -- -- 91
2019-09-28 16:00:00 20.6 8 Sudoeste 23 Sudoeste 0 -- -- 87
2019-09-28 15:00:00 20.7 12 Sur 23 Sur 0 -- -- 81
2019-09-28 14:00:00 22.4 9 Sur 24 Sudoeste 0 -- -- 71
2019-09-28 13:00:00 21.6 8 Sur 20 Sur 0 -- -- 68
2019-09-28 12:00:00 21.2 7 Sur 15 Sudeste 0 -- -- 80
2019-09-28 11:00:00 21.5 5 Sudeste 15 Sudeste 0 -- -- 67
2019-09-28 10:00:00 20.1 12 Sudeste 17 Sudeste 0 -- -- 59
2019-09-28 09:00:00 18.9 11 Sudeste 15 Sudeste 0 -- -- 63
2019-09-28 08:00:00 17.1 10 Sudeste 12 Sudeste 0 -- -- 70
2019-09-28 07:00:00 17.4 4 Noroeste 10 Norte 0 -- -- 63
2019-09-28 06:00:00 17.4 10 Noroeste 14 Noroeste 0 -- -- 65
2019-09-28 05:00:00 17.6 10 Noroeste 20 Noroeste 0 -- -- 62
2019-09-28 04:00:00 17.7 14 Noroeste 19 Noroeste 0 -- -- 62
2019-09-28 03:00:00 17.9 13 Noroeste 18 Noroeste 0 -- -- 58
2019-09-28 02:00:00 18.7 10 Oeste 15 Noroeste 0 -- -- 54
2019-09-28 01:00:00 19.3 11 Oeste 18 Sudoeste 0 -- -- 51
2019-09-28 00:00:00 18.9 12 Sudoeste 23 Sudoeste 0 -- -- 55
2019-09-27 23:00:00 18.6 18 Sudoeste 24 Sudoeste 0 -- -- 56
2019-09-27 22:00:00 18.7 8 Oeste 22 Sudoeste 0 -- -- 54
2019-09-27 21:00:00 18.4 16 Sudoeste 24 Sudoeste 0 -- -- 56
2019-09-27 20:00:00 16.8 13 Sur 24 Sudoeste 0 -- -- 97
2019-09-27 19:00:00 17.6 15 Sur 21 Sur 0 -- -- 99
2019-09-27 18:00:00 19 14 Sur 23 Sur 0 -- -- 91
2019-09-27 17:00:00 19.8 14 Sur 29 Sudeste 0 -- -- 83
2019-09-27 16:00:00 20.7 16 Sur 29 Sur 0 -- -- 78
2019-09-27 15:00:00 20.5 18 Sur 30 Sur 0 -- -- 77
2019-09-27 14:00:00 20.7 19 Sur 30 Sur 0 -- -- 71
2019-09-27 13:00:00 20.5 15 Sur 24 Sur 0 -- -- 79
2019-09-27 12:00:00 20.9 9 Sur 18 Sur 0 -- -- 71
2019-09-27 11:00:00 20.4 6 Sur 15 Sudoeste 0 -- -- 69
2019-09-27 10:00:00 19.2 10 Sur 15 Sudoeste 0 -- -- 76
2019-09-27 09:00:00 19.3 5 Oeste 12 Oeste 0 -- -- 69
2019-09-27 08:00:00 17.2 6 Oeste 12 Oeste 0 -- -- 74
2019-09-27 07:00:00 16.4 7 Oeste 15 Sudoeste 0 -- -- 75
2019-09-27 06:00:00 16.2 12 Sudoeste 17 Sudoeste 0 -- -- 62
2019-09-27 05:00:00 17.3 9 Oeste 14 Noroeste 0 -- -- 70
2019-09-27 04:00:00 17.5 6 Oeste 13 Oeste 0 -- -- 72
2019-09-27 03:00:00 17.1 8 Oeste 17 Sudoeste 0 -- -- 75
2019-09-27 02:00:00 16.4 13 Sur 19 Sur 0 -- -- 61
2019-09-27 01:00:00 16.4 14 Sur 21 Sudoeste 0 -- -- 62
2019-09-27 00:00:00 16.6 12 Sudoeste 17 Sudoeste 0 -- -- 63
2019-09-26 23:00:00 16.7 12 Sur 18 Sur 0 -- -- 78
2019-09-26 22:00:00 16.5 12 Sur 16 Sur 0 -- -- 69
2019-09-26 21:00:00 16.7 10 Sur 15 Sur 0 -- -- 78
2019-09-26 20:00:00 16.5 10 Sur 14 Sur 0 -- -- 99
2019-09-26 19:00:00 17.9 8 Sur 16 Sudoeste 0 -- -- 94
2019-09-26 18:00:00 19.3 9 Sur 18 Sudoeste 0 -- -- 80
2019-09-26 17:00:00 19.7 8 Sur 24 Sudoeste 0 -- -- 81
2019-09-26 16:00:00 20.1 6 Sudoeste 21 Sudoeste 0 -- -- 75
2019-09-26 15:00:00 20.5 4 Nordeste 16 Sudoeste 0 -- -- 69
2019-09-26 14:00:00 18.7 9 Norte 19 Norte 0 -- -- 68
2019-09-26 13:00:00 19.2 12 Noroeste 18 Noroeste 0 -- -- 69
2019-09-26 12:00:00 20 4 Oeste 18 Noroeste 0 -- -- 53
2019-09-26 11:00:00 20.3 7 Noroeste 16 Noroeste 0 -- -- 51
2019-09-26 10:00:00 18.1 8 Noroeste 16 Noroeste 0 -- -- 53
2019-09-26 09:00:00 16.9 11 Noroeste 20 Norte 0 -- -- 62
2019-09-26 08:00:00 14.9 13 Norte 20 Noroeste 0 -- -- 83
2019-09-26 07:00:00 14.6 16 Noroeste 21 Norte 0 -- -- 91
2019-09-26 06:00:00 14.2 12 Noroeste 22 Noroeste 0 -- -- 93
2019-09-26 05:00:00 14.9 17 Norte 21 Norte 0 -- -- 78
2019-09-26 04:00:00 14.5 13 Noroeste 23 Noroeste 0 -- -- 86
2019-09-26 03:00:00 15 17 Noroeste 23 Noroeste 0 -- -- 78
2019-09-26 02:00:00 15.3 18 Noroeste 24 Noroeste 0 -- -- 75
2019-09-26 01:00:00 15.6 18 Noroeste 24 Noroeste 0 -- -- 72
2019-09-26 00:00:00 15.6 16 Noroeste 22 Noroeste 0 -- -- 80
2019-09-25 23:00:00 15.7 18 Noroeste 22 Noroeste 0 -- -- 85
2019-09-25 22:00:00 15.9 17 Noroeste 22 Noroeste 0 -- -- 88
2019-09-25 21:00:00 16.4 20 Noroeste 23 Noroeste 0 -- -- 79
2019-09-25 20:00:00 17.1 12 Noroeste 18 Noroeste 0 -- -- 79
2019-09-25 19:00:00 18.1 9 Noroeste 14 Noroeste 0 -- -- 80
2019-09-25 18:00:00 18.7 12 Noroeste 27 Noroeste 0 -- -- 74
2019-09-25 17:00:00 19.2 22 Noroeste 29 Noroeste 0 -- -- 74
2019-09-25 16:00:00 19.4 23 Noroeste 32 Oeste 0 -- -- 77
2019-09-25 15:00:00 19.2 19 Noroeste 26 Noroeste 0 -- -- 89
2019-09-25 14:00:00 19.5 9 Noroeste 14 Sudeste 0 -- -- 92
2019-09-25 13:00:00 22.9 6 Sur 17 Sur 0 -- -- 72
2019-09-25 12:00:00 21.6 3 Noroeste 27 Noroeste 0 -- -- 52
2019-09-25 11:00:00 17.3 22 Noroeste 36 Norte 0 -- -- 98
2019-09-25 10:00:00 19.1 9 Norte 15 Norte 0 -- -- 56
2019-09-25 09:00:00 20.6 4 Nordeste 13 Norte 0 -- -- 40
2019-09-25 08:00:00 19.7 8 Nordeste 12 Norte 0 -- -- 46
2019-09-25 07:00:00 20.2 4 Sudoeste 10 Sur 0 -- -- 48
2019-09-25 06:00:00 20.4 7 Sur 12 Sudoeste 0 -- -- 47
2019-09-25 05:00:00 20.4 7 Oeste 16 Oeste 0 -- -- 45
2019-09-25 04:00:00 21.1 9 Oeste 19 Sudoeste 0 -- -- 35
2019-09-25 03:00:00 20.3 10 Sur 14 Sudoeste 0 -- -- 46
2019-09-25 02:00:00 21 6 Sudoeste 14 Noroeste 0 -- -- 31
2019-09-25 01:00:00 20.4 11 Oeste 19 Noroeste 0 -- -- 38
2019-09-25 00:00:00 20.2 15 Noroeste 21 Noroeste 0 -- -- 37
2019-09-24 23:00:00 20.9 12 Oeste 18 Noroeste 0 -- -- 34
2019-09-24 22:00:00 21.1 17 Noroeste 24 Noroeste 0 -- -- 34
2019-09-24 21:00:00 20.3 14 Noroeste 28 Oeste 0 -- -- 36
2019-09-24 20:00:00 20.1 18 Oeste 29 Oeste 0 -- -- 42
2019-09-24 19:00:00 20.7 9 Oeste 25 Oeste 0 -- -- 68
2019-09-24 18:00:00 21.5 12 Oeste 26 Oeste 0 -- -- 57
2019-09-24 17:00:00 21.2 12 Sur 22 Sudoeste 0 -- -- 78
2019-09-24 16:00:00 21.5 8 Sudoeste 22 Sudoeste 0 -- -- 73
2019-09-24 15:00:00 23.2 11 Sudoeste 23 Sudoeste 0 -- -- 54
2019-09-24 14:00:00 22.4 10 Sur 25 Sudoeste 0 -- -- 62
2019-09-24 13:00:00 21.7 13 Sur 22 Sudoeste 0 -- -- 73
2019-09-24 12:00:00 20.5 12 Sur 24 Oeste 0 -- -- 77
2019-09-24 11:00:00 20.5 13 Oeste 26 Oeste 0 -- -- 55
2019-09-24 10:00:00 19.7 16 Oeste 25 Oeste 0 -- -- 50
2019-09-24 09:00:00 18.9 15 Sudoeste 27 Oeste 0 -- -- 52
2019-09-24 08:00:00 17.4 18 Oeste 26 Oeste 0 -- -- 58
2019-09-24 07:00:00 16.1 5 Oeste 28 Oeste 0 -- -- 62
2019-09-24 06:00:00 16.6 12 Sudoeste 21 Oeste 0 -- -- 59
2019-09-24 05:00:00 15.8 14 Oeste 21 Noroeste 0 -- -- 64
2019-09-24 04:00:00 15.9 15 Noroeste 41 Noroeste 0 -- -- 62
2019-09-24 03:00:00 15.9 13 Noroeste 21 Noroeste 0 -- -- 61
2019-09-24 02:00:00 15.8 14 Noroeste 18 Noroeste 0 -- -- 60
2019-09-24 01:00:00 15.8 16 Noroeste 19 Noroeste 0 -- -- 55
2019-09-24 00:00:00 16.2 15 Noroeste 20 Noroeste 0 -- -- 51
2019-09-23 23:00:00 16.3 15 Noroeste 23 Noroeste 0 -- -- 54
2019-09-23 22:00:00 16.3 14 Noroeste 20 Noroeste 0 -- -- 60
2019-09-23 21:00:00 16.2 16 Noroeste 20 Noroeste 0 -- -- 64
2019-09-23 20:00:00 16.5 13 Noroeste 17 Noroeste 0 -- -- 86
2019-09-23 19:00:00 17.7 3 Norte 9 Noroeste 0 -- -- 89
2019-09-23 18:00:00 18.2 4 Norte 13 Norte 0 -- -- 87
2019-09-23 17:00:00 18.5 5 Noroeste 15 Noroeste 0 -- -- 89
2019-09-23 16:00:00 19.2 4 Norte 23 Nordeste 0 -- -- 80
2019-09-23 15:00:00 19.6 6 Norte 17 Sur 0 -- -- 79
2019-09-23 14:00:00 20.1 7 Sudoeste 20 Este 0 -- -- 75
2019-09-23 13:00:00 19.3 6 Este 23 Sudeste 0 -- -- 76
2019-09-23 12:00:00 19.4 13 Este 21 Sudeste 0 -- -- 79
2019-09-23 11:00:00 16.8 13 Este 19 Sudeste 0 -- -- 91
2019-09-23 10:00:00 16.4 7 Este 10 Este 0 -- -- 99
2019-09-23 09:00:00 17.2 9 Noroeste 15 Norte 0 -- -- 99
2019-09-23 08:00:00 16.5 6 Este 10 Este 0 -- -- 99
2019-09-23 07:00:00 16.9 6 Norte 12 Noroeste 0 -- -- 99
2019-09-23 06:00:00 17 6 Noroeste 14 Sudoeste 0 -- -- 94
2019-09-23 05:00:00 16.9 12 Noroeste 19 Oeste 0 -- -- 99
2019-09-23 04:00:00 17.3 6 Noroeste 31 Noroeste 0 -- -- 98
2019-09-23 03:00:00 17.1 11 Norte 25 Noroeste 0 -- -- 91
2019-09-23 02:00:00 17.6 18 Oeste 31 Oeste 0 -- -- 86
2019-09-23 01:00:00 17.7 15 Noroeste 28 Noroeste 0 -- -- 84
2019-09-23 00:00:00 17.4 16 Noroeste 32 Oeste 0 -- -- 85
2019-09-22 23:00:00 17.8 20 Noroeste 29 Noroeste 0 -- -- 82
2019-09-22 22:00:00 18.6 17 Oeste 25 Oeste 0 -- -- 75
2019-09-22 21:00:00 17.2 11 Sur 19 Sur 0 -- -- 89
2019-09-22 20:00:00 17.2 14 Sur 26 Sur 0 -- -- 99
2019-09-22 19:00:00 18 16 Sur 26 Sur 0 -- -- 99
2019-09-22 18:00:00 19.4 11 Sur 22 Sur 0 -- -- 95
2019-09-22 17:00:00 20.6 9 Sudoeste 19 Sudoeste 0 -- -- 96
2019-09-22 16:00:00 21.3 10 Sudoeste 21 Sudoeste 0 -- -- 87
2019-09-22 15:00:00 22.6 4 Norte 36 Sudoeste 0 -- -- 75
2019-09-22 14:00:00 22.6 8 Sur 19 Sur 0 -- -- 81
2019-09-22 13:00:00 20.2 5 Oeste 19 Sudoeste 0 -- -- 91
2019-09-22 12:00:00 19.1 10 Sur 24 Sudoeste 0 -- -- 99
2019-09-22 11:00:00 20.1 7 Sudoeste 22 Oeste 0 -- -- 85
2019-09-22 10:00:00 19.9 12 Sudoeste 25 Oeste 0 -- -- 79
2019-09-22 09:00:00 19.4 18 Oeste 29 Oeste 0 -- -- 74
2019-09-22 08:00:00 18.2 12 Oeste 29 Noroeste 0 -- -- 77
2019-09-22 07:00:00 17 15 Noroeste 37 Noroeste 0 -- -- 89
2019-09-22 06:00:00 16.5 27 Noroeste 39 Noroeste 0 -- -- 95
2019-09-22 05:00:00 16.5 29 Noroeste 44 Norte 0 -- -- 99
2019-09-22 04:00:00 16.8 29 Noroeste 39 Noroeste 0 -- -- 99
2019-09-22 03:00:00 16.8 28 Norte 44 Norte 0 -- -- 99
2019-09-22 02:00:00 17.3 31 Norte 41 Norte 0 -- -- 94
2019-09-22 01:00:00 17.4 16 Noroeste 33 Noroeste 0 -- -- 99
2019-09-22 00:00:00 17.8 21 Noroeste 29 Noroeste 0 -- -- 99